createdAt,value
2022-12-05T00:01:59.935Z,100.00
2022-12-05T00:04:27.482Z,100.00
2022-12-05T00:06:54.992Z,100.00
2022-12-05T00:09:23.798Z,100.00
2022-12-05T00:11:51.388Z,100.00
2022-12-05T00:14:18.971Z,100.00
2022-12-05T00:16:46.544Z,100.00
2022-12-05T00:19:16.320Z,100.00
2022-12-05T00:21:43.983Z,100.00
2022-12-05T00:24:14.297Z,100.00
2022-12-05T00:26:43.785Z,100.00
2022-12-05T00:29:11.367Z,100.00
2022-12-05T00:31:38.951Z,100.00
2022-12-05T00:34:06.665Z,100.00
2022-12-05T00:36:35.838Z,100.00
2022-12-05T00:39:07.043Z,100.00
2022-12-05T00:41:34.503Z,100.00
2022-12-05T00:44:04.384Z,100.00
2022-12-05T00:46:33.434Z,100.00
2022-12-05T00:49:02.159Z,100.00
2022-12-05T00:51:31.353Z,100.00
2022-12-05T00:54:00.117Z,100.00
2022-12-05T00:56:29.002Z,100.00
2022-12-05T00:58:57.084Z,100.00
2022-12-05T01:01:28.430Z,100.00
2022-12-05T01:03:59.043Z,100.00
2022-12-05T01:06:28.419Z,100.00
2022-12-05T01:08:56.791Z,100.00
2022-12-05T01:11:25.539Z,100.00
2022-12-05T01:13:53.727Z,100.00
2022-12-05T01:16:24.755Z,100.00
2022-12-05T01:18:54.334Z,100.00
2022-12-05T01:21:22.622Z,100.00
2022-12-05T01:23:50.406Z,100.00
2022-12-05T01:26:21.103Z,100.00
2022-12-05T01:28:48.954Z,100.00
2022-12-05T01:31:21.627Z,100.00
2022-12-05T01:33:49.523Z,100.00
2022-12-05T01:36:19.025Z,100.00
2022-12-05T01:38:46.609Z,100.00
2022-12-05T01:41:16.945Z,100.00
2022-12-05T01:43:55.192Z,100.00
2022-12-05T01:46:22.745Z,100.00
2022-12-05T01:48:52.786Z,100.00
2022-12-05T01:51:21.868Z,100.00
2022-12-05T01:53:49.395Z,100.00
2022-12-05T01:56:17.985Z,100.00
2022-12-05T01:58:46.543Z,100.00
2022-12-05T02:01:16.203Z,100.00
2022-12-05T02:03:45.916Z,100.00
2022-12-05T02:06:14.461Z,100.00
2022-12-05T02:08:45.548Z,100.00
2022-12-05T02:11:13.147Z,100.00
2022-12-05T02:14:04.905Z,100.00
2022-12-05T02:16:44.636Z,100.00
2022-12-05T02:19:42.189Z,100.00
2022-12-05T02:22:38.215Z,100.00
2022-12-05T02:25:19.298Z,100.00
2022-12-05T02:28:04.044Z,100.00
2022-12-05T02:30:40.344Z,100.00
2022-12-05T02:33:17.120Z,100.00
2022-12-05T02:35:56.133Z,100.00
2022-12-05T02:38:31.012Z,100.00
2022-12-05T02:41:08.759Z,100.00
2022-12-05T02:43:40.966Z,100.00
2022-12-05T02:46:14.027Z,100.00
2022-12-05T02:48:44.240Z,100.00
2022-12-05T02:51:15.771Z,100.00
2022-12-05T02:53:45.419Z,100.00
2022-12-05T02:56:13.570Z,100.00
2022-12-05T02:58:48.136Z,100.00
2022-12-05T03:01:17.247Z,100.00
2022-12-05T03:03:45.226Z,100.00
2022-12-05T03:06:16.276Z,100.00
2022-12-05T03:08:49.558Z,100.00
2022-12-05T03:11:17.417Z,100.00
2022-12-05T03:13:49.855Z,100.00
2022-12-05T03:16:24.143Z,100.00
2022-12-05T03:18:56.339Z,100.00
2022-12-05T03:21:31.904Z,100.00
2022-12-05T03:24:03.612Z,100.00
2022-12-05T03:26:41.812Z,100.00
2022-12-05T03:29:21.820Z,100.00
2022-12-05T03:32:00.165Z,100.00
2022-12-05T03:34:40.672Z,100.00
2022-12-05T03:37:13.640Z,100.00
2022-12-05T03:39:46.315Z,100.00
2022-12-05T03:42:16.961Z,100.00
2022-12-05T03:44:51.464Z,100.00
2022-12-05T03:47:26.024Z,100.00
2022-12-05T03:49:59.387Z,100.00
2022-12-05T03:52:38.001Z,100.00
2022-12-05T03:55:19.200Z,100.00
2022-12-05T03:57:54.415Z,100.00
2022-12-05T04:00:24.405Z,100.00
2022-12-05T04:02:56.559Z,100.00
2022-12-05T04:05:27.718Z,100.00
2022-12-05T04:08:00.952Z,100.00
2022-12-05T04:10:32.667Z,100.00
2022-12-05T04:13:17.724Z,100.00
2022-12-05T04:16:08.830Z,100.00
2022-12-05T04:18:43.264Z,100.00
2022-12-05T04:21:29.222Z,100.00
2022-12-05T04:24:11.011Z,100.00
2022-12-05T04:26:45.099Z,100.00
2022-12-05T04:29:20.222Z,100.00
2022-12-05T04:31:50.955Z,100.00
2022-12-05T04:34:22.377Z,100.00
2022-12-05T04:36:56.035Z,100.00
2022-12-05T04:39:28.200Z,100.00
2022-12-05T04:41:59.324Z,100.00
2022-12-05T04:44:30.315Z,100.00
2022-12-05T04:47:01.354Z,100.00
2022-12-05T04:49:32.251Z,100.00
2022-12-05T04:52:03.995Z,100.00
2022-12-05T04:54:35.436Z,100.00
2022-12-05T04:57:07.813Z,100.00
2022-12-05T04:59:36.060Z,100.00
2022-12-05T05:02:08.961Z,100.00
2022-12-05T05:04:41.795Z,100.00
2022-12-05T05:07:10.834Z,100.00
2022-12-05T05:09:39.919Z,100.00
2022-12-05T05:12:08.183Z,100.00
2022-12-05T05:14:35.927Z,100.00
2022-12-05T05:17:03.502Z,100.00
2022-12-05T05:19:31.135Z,100.00
2022-12-05T05:22:00.311Z,100.00
2022-12-05T05:24:27.803Z,100.00
2022-12-05T05:26:57.433Z,100.00
2022-12-05T05:29:25.504Z,100.00
2022-12-05T05:31:52.925Z,100.00
2022-12-05T05:34:20.350Z,100.00
2022-12-05T05:36:52.512Z,100.00
2022-12-05T05:39:21.378Z,100.00
2022-12-05T05:41:48.809Z,100.00
2022-12-05T05:44:16.313Z,100.00
2022-12-05T05:46:43.815Z,100.00
2022-12-05T05:49:11.332Z,100.00
2022-12-05T05:51:38.772Z,100.00
2022-12-05T05:54:06.441Z,100.00
2022-12-05T05:56:35.232Z,100.00
2022-12-05T05:59:04.573Z,100.00
2022-12-05T06:01:32.318Z,100.00
2022-12-05T06:04:00.333Z,100.00
2022-12-05T06:06:28.327Z,100.00
2022-12-05T06:08:55.791Z,100.00
2022-12-05T06:11:26.503Z,100.00
2022-12-05T06:13:55.866Z,100.00
2022-12-05T06:16:23.790Z,100.00
2022-12-05T06:18:52.299Z,100.00
2022-12-05T06:21:20.417Z,100.00
2022-12-05T06:23:48.166Z,100.00
2022-12-05T06:26:17.498Z,100.00
2022-12-05T06:28:45.315Z,100.00
2022-12-05T06:31:16.204Z,100.00
2022-12-05T06:33:44.601Z,100.00
2022-12-05T06:36:14.666Z,100.00
2022-12-05T06:38:42.720Z,100.00
2022-12-05T06:41:15.439Z,100.00
2022-12-05T06:43:43.492Z,100.00
2022-12-05T06:46:13.672Z,100.00
2022-12-05T06:48:42.534Z,100.00
2022-12-05T06:51:11.614Z,100.00
2022-12-05T06:53:39.548Z,100.00
2022-12-05T06:56:12.331Z,100.00
2022-12-05T06:58:39.803Z,100.00
2022-12-05T07:01:28.006Z,100.00
2022-12-05T07:03:56.852Z,100.00
2022-12-05T07:06:24.507Z,100.00
2022-12-05T07:08:52.002Z,100.00
2022-12-05T07:11:19.496Z,100.00
2022-12-05T07:13:46.992Z,100.00
2022-12-05T07:16:14.600Z,100.00
2022-12-05T07:18:42.044Z,100.00
2022-12-05T07:21:15.159Z,100.00
2022-12-05T07:23:43.537Z,100.00
2022-12-05T07:26:13.099Z,100.00
2022-12-05T07:28:40.534Z,100.00
2022-12-05T07:31:10.706Z,100.00
2022-12-05T07:33:38.771Z,100.00
2022-12-05T07:36:08.919Z,100.00
2022-12-05T07:38:37.945Z,100.00
2022-12-05T07:41:11.735Z,100.00
2022-12-05T07:43:41.087Z,100.00
2022-12-05T07:46:11.161Z,100.00
2022-12-05T07:48:38.838Z,100.00
2022-12-05T07:51:08.672Z,100.00
2022-12-05T07:53:40.434Z,100.00
2022-12-05T07:56:09.432Z,100.00
2022-12-05T07:58:37.822Z,100.00
2022-12-05T08:01:09.648Z,100.00
2022-12-05T08:03:38.301Z,100.00
2022-12-05T08:06:07.556Z,100.00
2022-12-05T08:08:35.415Z,100.00
2022-12-05T08:11:09.047Z,100.00
2022-12-05T08:13:37.076Z,100.00
2022-12-05T08:16:05.876Z,100.00
2022-12-05T08:18:33.751Z,100.00
2022-12-05T08:21:04.200Z,100.00
2022-12-05T08:23:32.416Z,100.00
2022-12-05T08:26:03.233Z,100.00
2022-12-05T08:28:33.065Z,99.85
2022-12-05T08:31:05.599Z,100.00
2022-12-05T08:33:33.152Z,100.00
2022-12-05T08:36:02.114Z,100.00
2022-12-05T08:38:29.436Z,100.00
2022-12-05T08:40:56.962Z,100.00
2022-12-05T08:43:24.391Z,100.00
2022-12-05T08:45:54.674Z,100.00
2022-12-05T08:48:29.033Z,100.00
2022-12-05T08:50:57.635Z,100.00
2022-12-05T08:53:25.167Z,100.00
2022-12-05T08:55:52.623Z,100.00
2022-12-05T08:58:20.150Z,100.00
2022-12-05T09:00:47.601Z,100.00
2022-12-05T09:03:16.367Z,100.00
2022-12-05T09:05:43.837Z,100.00
2022-12-05T09:08:11.488Z,100.00
2022-12-05T09:10:39.350Z,100.00
2022-12-05T09:13:06.783Z,100.00
2022-12-05T09:15:34.249Z,100.00
2022-12-05T09:18:01.734Z,100.00
2022-12-05T09:20:30.498Z,100.00
2022-12-05T09:22:57.935Z,100.00
2022-12-05T09:25:25.361Z,100.00
2022-12-05T09:27:54.692Z,100.00
2022-12-05T09:30:22.137Z,99.37
2022-12-05T09:32:49.585Z,99.23
2022-12-05T09:35:17.201Z,99.93
2022-12-05T09:37:45.946Z,99.47
2022-12-05T09:40:17.505Z,99.40
2022-12-05T09:43:03.078Z,99.59
2022-12-05T09:45:37.764Z,100.00
2022-12-05T09:48:08.676Z,99.01
2022-12-05T09:50:44.123Z,99.81
2022-12-05T09:53:28.269Z,100.00
2022-12-05T09:56:01.445Z,100.00
2022-12-05T09:58:41.810Z,99.45
2022-12-05T10:01:26.200Z,100.00
2022-12-05T10:04:13.263Z,100.00
2022-12-05T10:06:51.310Z,99.99
2022-12-05T10:09:43.038Z,99.79
2022-12-05T10:12:19.587Z,99.35
2022-12-05T10:15:01.941Z,100.00
2022-12-05T10:17:34.290Z,100.00
2022-12-05T10:20:06.494Z,100.00
2022-12-05T10:22:44.104Z,99.73
2022-12-05T10:25:15.781Z,100.00
2022-12-05T10:27:48.447Z,100.00
2022-12-05T10:30:19.672Z,100.00
2022-12-05T10:32:53.216Z,100.00
2022-12-05T10:35:23.220Z,100.00
2022-12-05T10:37:54.516Z,100.00
2022-12-05T10:40:23.621Z,100.00
2022-12-05T10:42:51.572Z,100.00
2022-12-05T10:45:21.353Z,100.00
2022-12-05T10:47:50.480Z,100.00
2022-12-05T10:50:26.162Z,100.00
2022-12-05T10:52:54.915Z,100.00
2022-12-05T10:55:31.188Z,100.00
2022-12-05T10:58:15.655Z,100.00
2022-12-05T11:00:49.012Z,100.00
2022-12-05T11:03:27.283Z,100.00
2022-12-05T11:05:57.088Z,100.00
2022-12-05T11:08:41.762Z,100.00
2022-12-05T11:11:23.557Z,100.00
2022-12-05T11:13:56.233Z,100.00
2022-12-05T11:16:26.260Z,100.00
2022-12-05T11:18:54.307Z,100.00
2022-12-05T11:21:21.878Z,100.00
2022-12-05T11:23:49.928Z,100.00
2022-12-05T11:26:34.691Z,100.00
2022-12-05T11:29:02.199Z,100.00
2022-12-05T11:31:31.573Z,100.00
2022-12-05T11:34:03.737Z,100.00
2022-12-05T11:36:40.967Z,100.00
2022-12-05T11:39:12.751Z,100.00
2022-12-05T11:42:08.062Z,100.00
2022-12-05T11:44:53.437Z,100.00
2022-12-05T11:47:37.119Z,100.00
2022-12-05T11:50:22.337Z,100.00
2022-12-05T11:53:00.256Z,100.00
2022-12-05T11:55:36.296Z,100.00
2022-12-05T11:58:29.841Z,100.00
2022-12-05T12:01:04.779Z,100.00
2022-12-05T12:03:49.648Z,100.00
2022-12-05T12:06:28.621Z,100.00
2022-12-05T12:09:15.171Z,100.00
2022-12-05T12:11:49.438Z,100.00
2022-12-05T12:14:26.878Z,100.00
2022-12-05T12:17:02.713Z,100.00
2022-12-05T12:19:52.759Z,100.00
2022-12-05T12:22:42.707Z,100.00
2022-12-05T12:25:25.765Z,100.00
2022-12-05T12:28:05.131Z,100.00
2022-12-05T12:30:47.890Z,100.00
2022-12-05T12:33:27.475Z,100.00
2022-12-05T12:36:03.555Z,100.00
2022-12-05T12:38:50.953Z,100.00
2022-12-05T12:41:39.964Z,100.00
2022-12-05T12:44:26.766Z,100.00
2022-12-05T12:47:00.450Z,100.00
2022-12-05T12:49:42.306Z,100.00
2022-12-05T12:52:14.685Z,100.00
2022-12-05T12:55:11.487Z,100.00
2022-12-05T12:57:56.467Z,100.00
2022-12-05T13:00:35.806Z,100.00
2022-12-05T13:03:11.915Z,100.00
2022-12-05T13:05:46.515Z,100.00
2022-12-05T13:08:22.630Z,100.00
2022-12-05T13:10:50.312Z,100.00
2022-12-05T13:13:22.586Z,100.00
2022-12-05T13:15:52.615Z,100.00
2022-12-05T13:18:23.736Z,100.00
2022-12-05T13:20:53.912Z,100.00
2022-12-05T13:23:24.954Z,100.00
2022-12-05T13:25:55.404Z,100.00
2022-12-05T13:28:29.736Z,100.00
2022-12-05T13:31:01.372Z,100.00
2022-12-05T13:33:33.624Z,100.00
2022-12-05T13:36:25.828Z,100.00
2022-12-05T13:39:16.039Z,100.00
2022-12-05T13:42:03.464Z,100.00
2022-12-05T13:44:35.642Z,100.00
2022-12-05T13:47:07.333Z,100.00
2022-12-05T13:49:44.792Z,100.00
2022-12-05T13:52:17.360Z,100.00
2022-12-05T13:54:50.604Z,100.00
2022-12-05T13:57:46.215Z,100.00
2022-12-05T14:00:29.396Z,100.00
2022-12-05T14:03:01.676Z,100.00
2022-12-05T14:05:42.830Z,100.00
2022-12-05T14:08:46.654Z,100.00
2022-12-05T14:11:14.157Z,100.00
2022-12-05T14:13:44.810Z,100.00
2022-12-05T14:16:49.857Z,100.00
2022-12-05T14:19:47.748Z,100.00
2022-12-05T14:22:40.894Z,100.00
2022-12-05T14:25:18.372Z,100.00
2022-12-05T14:27:55.892Z,100.00
2022-12-05T14:30:27.283Z,100.00
2022-12-05T14:32:55.605Z,100.00
2022-12-05T14:35:29.848Z,100.00
2022-12-05T14:38:02.235Z,100.00
2022-12-05T14:40:33.199Z,100.00
2022-12-05T14:43:02.828Z,100.00
2022-12-05T14:45:38.751Z,100.00
2022-12-05T14:48:26.587Z,100.00
2022-12-05T14:50:55.712Z,100.00
2022-12-05T14:53:30.796Z,100.00
2022-12-05T14:56:03.013Z,100.00
2022-12-05T14:58:35.660Z,100.00
2022-12-05T15:01:07.369Z,100.00
2022-12-05T15:03:38.186Z,100.00
2022-12-05T15:06:08.024Z,100.00
2022-12-05T15:08:46.061Z,100.00
2022-12-05T15:11:28.020Z,100.00
2022-12-05T15:13:59.405Z,100.00
2022-12-05T15:16:29.859Z,100.00
2022-12-05T15:19:02.730Z,100.00
2022-12-05T15:21:34.210Z,100.00
2022-12-05T15:24:04.827Z,100.00
2022-12-05T15:26:48.267Z,100.00
2022-12-05T15:29:25.203Z,100.00
2022-12-05T15:31:55.427Z,100.00
2022-12-05T15:34:26.760Z,100.00
2022-12-05T15:36:59.435Z,100.00
2022-12-05T15:39:28.654Z,100.00
2022-12-05T15:41:58.870Z,100.00
2022-12-05T15:44:35.918Z,100.00
2022-12-05T15:47:05.332Z,100.00
2022-12-05T15:49:32.793Z,100.00
2022-12-05T15:52:08.094Z,100.00
2022-12-05T15:54:39.716Z,100.00
2022-12-05T15:57:13.491Z,100.00
2022-12-05T15:59:46.912Z,100.00
2022-12-05T16:02:17.698Z,100.00
2022-12-05T16:04:50.331Z,100.00
2022-12-05T16:07:17.944Z,100.00
2022-12-05T16:09:47.420Z,100.00
2022-12-05T16:12:27.896Z,100.00
2022-12-05T16:14:59.997Z,100.00
2022-12-05T16:17:30.761Z,100.00
2022-12-05T16:20:11.912Z,100.00
2022-12-05T16:22:45.162Z,100.00
2022-12-05T16:25:17.538Z,100.00
2022-12-05T16:27:57.582Z,100.00
2022-12-05T16:30:25.810Z,100.00
2022-12-05T16:33:00.698Z,100.00
2022-12-05T16:35:34.656Z,100.00
2022-12-05T16:38:07.851Z,100.00
2022-12-05T16:40:39.339Z,100.00
2022-12-05T16:43:17.705Z,100.00
2022-12-05T16:45:47.565Z,100.00
2022-12-05T16:48:17.868Z,100.00
2022-12-05T16:50:45.530Z,100.00
2022-12-05T16:53:30.757Z,100.00
2022-12-05T16:56:00.900Z,100.00
2022-12-05T16:58:31.548Z,100.00
2022-12-05T17:01:04.329Z,100.00
2022-12-05T17:03:35.187Z,100.00
2022-12-05T17:06:03.537Z,100.00
2022-12-05T17:08:30.955Z,100.00
2022-12-05T17:11:01.708Z,100.00
2022-12-05T17:13:29.289Z,100.00
2022-12-05T17:15:56.810Z,100.00
2022-12-05T17:18:30.912Z,100.00
2022-12-05T17:21:02.104Z,100.00
2022-12-05T17:23:32.452Z,100.00
2022-12-05T17:26:01.254Z,100.00
2022-12-05T17:28:28.698Z,100.00
2022-12-05T17:30:56.243Z,100.00
2022-12-05T17:33:24.110Z,100.00
2022-12-05T17:35:52.004Z,100.00
2022-12-05T17:38:19.495Z,100.00
2022-12-05T17:40:47.741Z,100.00
2022-12-05T17:43:23.029Z,100.00
2022-12-05T17:45:52.600Z,100.00
2022-12-05T17:48:20.444Z,100.00
2022-12-05T17:50:50.203Z,100.00
2022-12-05T17:53:20.866Z,100.00
2022-12-05T17:55:48.976Z,100.00
2022-12-05T17:58:18.516Z,100.00
2022-12-05T18:00:47.078Z,100.00
2022-12-05T18:03:16.270Z,100.00
2022-12-05T18:05:43.776Z,100.00
2022-12-05T18:08:11.702Z,100.00
2022-12-05T18:10:42.577Z,100.00
2022-12-05T18:13:10.654Z,100.00
2022-12-05T18:15:42.958Z,100.00
2022-12-05T18:18:14.479Z,100.00
2022-12-05T18:20:41.939Z,100.00
2022-12-05T18:23:09.362Z,100.00
2022-12-05T18:25:36.835Z,100.00
2022-12-05T18:28:04.418Z,100.00
2022-12-05T18:30:31.856Z,100.00
2022-12-05T18:33:00.692Z,100.00
2022-12-05T18:35:41.044Z,100.00
2022-12-05T18:38:09.006Z,100.00
2022-12-05T18:40:36.534Z,100.00
2022-12-05T18:43:04.367Z,100.00
2022-12-05T18:45:31.883Z,100.00
2022-12-05T18:48:16.384Z,100.00
2022-12-05T18:50:48.424Z,100.00
2022-12-05T18:53:15.883Z,100.00
2022-12-05T18:56:05.359Z,100.00
2022-12-05T18:58:30.753Z,100.00
2022-12-05T19:01:05.438Z,100.00
2022-12-05T19:03:34.807Z,100.00
2022-12-05T19:06:02.562Z,100.00
2022-12-05T19:08:30.057Z,100.00
2022-12-05T19:10:57.556Z,100.00
2022-12-05T19:13:25.068Z,100.00
2022-12-05T19:15:52.558Z,100.00
2022-12-05T19:18:19.974Z,100.00
2022-12-05T19:20:52.261Z,100.00
2022-12-05T19:23:19.699Z,100.00
2022-12-05T19:25:47.179Z,100.00
2022-12-05T19:28:14.622Z,100.00
2022-12-05T19:30:42.092Z,100.00
2022-12-05T19:33:09.543Z,100.00
2022-12-05T19:35:37.740Z,100.00
2022-12-05T19:38:06.518Z,100.00
2022-12-05T19:40:33.964Z,100.00
2022-12-05T19:43:01.387Z,100.00
2022-12-05T19:45:28.897Z,100.00
2022-12-05T19:47:56.343Z,100.00
2022-12-05T19:50:23.798Z,100.00
2022-12-05T19:52:51.321Z,100.00
2022-12-05T19:55:20.132Z,100.00
2022-12-05T19:57:47.588Z,100.00
2022-12-05T20:00:18.803Z,100.00
2022-12-05T20:02:50.167Z,100.00
2022-12-05T20:05:18.020Z,100.00
2022-12-05T20:07:45.471Z,100.00
2022-12-05T20:10:13.013Z,100.00
2022-12-05T20:12:41.769Z,100.00
2022-12-05T20:15:10.363Z,100.00
2022-12-05T20:17:37.888Z,100.00
2022-12-05T20:20:06.508Z,100.00
2022-12-05T20:22:33.972Z,100.00
2022-12-05T20:25:01.905Z,100.00
2022-12-05T20:27:29.522Z,100.00
2022-12-05T20:29:58.512Z,100.00
2022-12-05T20:32:26.237Z,100.00
2022-12-05T20:34:53.772Z,100.00
2022-12-05T20:37:21.207Z,100.00
2022-12-05T20:39:49.631Z,100.00
2022-12-05T20:42:17.749Z,100.00
2022-12-05T20:44:45.216Z,100.00
2022-12-05T20:47:13.998Z,100.00
2022-12-05T20:49:41.565Z,100.00
2022-12-05T20:52:08.995Z,100.00
2022-12-05T20:54:36.439Z,100.00
2022-12-05T20:57:03.984Z,100.00
2022-12-05T20:59:31.769Z,100.00
2022-12-05T21:01:59.335Z,100.00
2022-12-05T21:04:28.381Z,100.00
2022-12-05T21:06:55.851Z,100.00
2022-12-05T21:09:28.477Z,100.00
2022-12-05T21:11:56.289Z,100.00
2022-12-05T21:14:24.000Z,100.00
2022-12-05T21:16:52.699Z,100.00
2022-12-05T21:19:20.410Z,100.00
2022-12-05T21:21:49.210Z,100.00
2022-12-05T21:24:16.648Z,100.00
2022-12-05T21:26:44.082Z,100.00
2022-12-05T21:29:11.707Z,100.00
2022-12-05T21:31:41.107Z,100.00
2022-12-05T21:34:13.673Z,99.21
2022-12-05T21:36:41.419Z,99.30
2022-12-05T21:39:11.059Z,100.00
2022-12-05T21:41:39.019Z,98.71
2022-12-05T21:44:07.196Z,98.84
2022-12-05T21:46:34.971Z,100.00
2022-12-05T21:49:02.612Z,98.93
2022-12-05T21:51:30.044Z,99.93
2022-12-05T21:53:57.506Z,100.00
2022-12-05T21:56:26.507Z,100.00
2022-12-05T21:58:54.156Z,100.00
2022-12-05T22:01:24.910Z,100.00
2022-12-05T22:03:53.583Z,99.92
2022-12-05T22:06:21.263Z,99.73
2022-12-05T22:08:48.694Z,100.00
2022-12-05T22:11:18.473Z,100.00
2022-12-05T22:13:48.663Z,97.74
2022-12-05T22:16:16.780Z,97.61
2022-12-05T22:18:45.043Z,97.68
2022-12-05T22:21:17.691Z,95.84
2022-12-05T22:23:45.663Z,98.61
2022-12-05T22:26:14.436Z,96.93
2022-12-05T22:28:42.113Z,97.56
2022-12-05T22:31:13.692Z,95.93
2022-12-05T22:33:41.463Z,97.35
2022-12-05T22:36:11.391Z,97.46
2022-12-05T22:38:40.855Z,96.88
2022-12-05T22:41:11.148Z,96.21
2022-12-05T22:43:38.850Z,99.01
2022-12-05T22:46:07.516Z,99.84
2022-12-05T22:48:36.750Z,96.30
2022-12-05T22:51:05.831Z,96.39
2022-12-05T22:53:34.102Z,95.78
2022-12-05T22:56:06.154Z,95.69
2022-12-05T22:58:34.016Z,97.67
2022-12-05T23:01:10.074Z,94.15
2022-12-05T23:03:38.961Z,93.44
2022-12-05T23:06:11.472Z,93.67
2022-12-05T23:08:40.505Z,94.32
2022-12-05T23:11:09.012Z,94.85
2022-12-05T23:13:37.030Z,95.15
2022-12-05T23:16:09.181Z,94.30
2022-12-05T23:18:46.492Z,95.17
2022-12-05T23:21:17.541Z,93.42
2022-12-05T23:23:45.485Z,93.65
2022-12-05T23:26:13.660Z,94.73
2022-12-05T23:28:41.100Z,93.96
2022-12-05T23:31:10.303Z,94.74
2022-12-05T23:33:37.872Z,94.63
2022-12-05T23:36:06.297Z,94.93
2022-12-05T23:38:35.961Z,94.78
2022-12-05T23:41:05.014Z,93.34
2022-12-05T23:43:34.581Z,93.64
2022-12-05T23:46:02.335Z,93.79
2022-12-05T23:48:30.260Z,95.82
2022-12-05T23:51:01.984Z,97.18
2022-12-05T23:53:30.720Z,94.91
2022-12-05T23:56:02.814Z,93.58
2022-12-05T23:58:31.206Z,95.14
